Brady Lake, Ohio
Current Conditions -  °F | °C
As of 9:38 AM on Friday 31 Oct 2014 (Local Time) from KPOV Reporting Station
Broken Clouds Broken Clouds  
Wind Chill: 44°   Ceiling: 5000
Heat Index: 44°   Visibility: 10mi
Dew Point: 35°   Wind: 3mph
Humidity: 69%   Direction: 190°S
Pressure: 29.93"   Gusts: NA
Location:  41.16°N, 81.32°W
Report Text: KPOV 311338Z AUTO 19003KT 10SM SCT043 BKN050 07/02 A2993 RMK AO2 T00690016
Loading
Personal Weather Stations






























Interactive Weather Map
Tropical Storm Tracking
New forecast layout! Learn more

10-Day Weather Forecast

Advertisements
Track Severe Weather on mobile